createdAt,value
2019-02-19T00:01:48.446Z,10776.5
2019-02-19T00:11:48.571Z,10776.5
2019-02-19T00:21:47.775Z,10776.6
2019-02-19T00:31:46.981Z,10776.7
2019-02-19T00:41:46.186Z,10776.8
2019-02-19T00:51:45.390Z,10776.9
2019-02-19T01:01:44.596Z,10777
2019-02-19T01:11:43.803Z,10777.1
2019-02-19T01:21:43.005Z,10777.2
2019-02-19T01:31:42.209Z,10777.2
2019-02-19T01:41:41.416Z,10777.3
2019-02-19T01:51:40.619Z,10777.4
2019-02-19T02:01:39.825Z,10777.5
2019-02-19T02:11:39.029Z,10777.6
2019-02-19T02:21:38.234Z,10777.7
2019-02-19T02:31:37.438Z,10777.8
2019-02-19T02:41:36.642Z,10777.9
2019-02-19T02:51:35.850Z,10777.9
2019-02-19T03:01:35.051Z,10778
2019-02-19T03:11:34.257Z,10778.1
2019-02-19T03:21:33.460Z,10778.2
2019-02-19T03:31:32.666Z,10778.4
2019-02-19T03:41:31.867Z,10778.5
2019-02-19T03:51:31.077Z,10778.5
2019-02-19T04:01:30.276Z,10778.6
2019-02-19T04:11:29.476Z,10778.7
2019-02-19T04:21:28.683Z,10778.8
2019-02-19T04:31:27.884Z,10778.9
2019-02-19T04:41:27.084Z,10779
2019-02-19T04:49:06.022Z,10778.7
2019-02-19T04:59:05.223Z,10778.8
2019-02-19T05:09:04.427Z,10778.9
2019-02-19T05:19:03.634Z,10779
2019-02-19T05:29:02.844Z,10779.1
2019-02-19T05:39:02.051Z,10779.2
2019-02-19T05:49:01.314Z,10779.4
2019-02-19T05:59:00.705Z,10779.5
2019-02-19T06:08:59.895Z,10779.6
2019-02-19T06:18:59.186Z,10779.7
2019-02-19T06:28:58.481Z,10779.7
2019-02-19T06:38:57.767Z,10779.8
2019-02-19T06:48:56.975Z,10779.9
2019-02-19T06:58:56.181Z,10779.9
2019-02-19T07:08:55.381Z,10780
2019-02-19T07:19:20.267Z,10780
2019-02-19T07:28:53.792Z,10780.1
2019-02-19T07:38:52.995Z,10780.2
2019-02-19T07:48:52.201Z,10780.2
2019-02-19T07:58:51.414Z,10780.3
2019-02-19T08:08:50.612Z,10780.4
2019-02-19T08:18:49.817Z,10780.4
2019-02-19T08:28:49.023Z,10780.5
2019-02-19T08:38:47.062Z,10780.2
2019-02-19T08:48:46.266Z,10780.3
2019-02-19T08:58:45.474Z,10780.3
2019-02-19T09:08:44.678Z,10780.4
2019-02-19T09:18:43.884Z,10780.4
2019-02-19T09:28:43.087Z,10780.5
2019-02-19T09:38:42.334Z,10780.5
2019-02-19T09:48:41.623Z,10780.6
2019-02-19T09:58:40.911Z,10780.6
2019-02-19T10:08:40.205Z,10780.7
2019-02-19T10:18:39.491Z,10780.7
2019-02-19T10:28:38.781Z,10780.7
2019-02-19T10:38:37.991Z,10780.8
2019-02-19T10:48:37.194Z,10780.8
2019-02-19T10:58:36.402Z,10780.9
2019-02-19T11:08:35.619Z,10780.9
2019-02-19T11:18:34.825Z,10780.9
2019-02-19T11:28:34.031Z,10781
2019-02-19T11:38:33.246Z,10781
2019-02-19T11:48:36.880Z,10781.1
2019-02-19T11:58:31.659Z,10781.1
2019-02-19T12:08:38.563Z,10781.2
2019-02-19T12:18:30.069Z,10781.2
2019-02-19T12:28:29.289Z,10781.3
2019-02-19T12:38:28.480Z,10781.3
2019-02-19T12:48:27.685Z,10781.3
2019-02-19T12:58:26.892Z,10781.4
2019-02-19T13:08:26.095Z,10781.4
2019-02-19T13:18:25.298Z,10781.5
2019-02-19T13:28:24.504Z,10781.5
2019-02-19T13:38:23.709Z,10781.6
2019-02-19T13:48:22.914Z,10781.6
2019-02-19T13:58:22.116Z,10781.7
2019-02-19T14:08:21.320Z,10781.7
2019-02-19T14:18:20.525Z,10781.8
2019-02-19T14:28:19.728Z,10781.8
2019-02-19T14:38:18.931Z,10781.9
2019-02-19T14:48:18.136Z,10782
2019-02-19T14:58:17.341Z,10782
2019-02-19T15:08:16.548Z,10782
2019-02-19T15:18:15.749Z,10782.1
2019-02-19T15:28:14.951Z,10782.1
2019-02-19T15:38:14.157Z,10782.2
2019-02-19T15:48:13.359Z,10782.2
2019-02-19T15:58:12.560Z,10782.3
2019-02-19T16:08:11.764Z,10782.4
2019-02-19T16:18:10.968Z,10782.4
2019-02-19T16:28:10.185Z,10782.5
2019-02-19T16:38:09.398Z,10782.6
2019-02-19T16:48:08.596Z,10782.6
2019-02-19T16:58:07.806Z,10782.7
2019-02-19T17:08:07.016Z,10782.8
2019-02-19T17:18:06.277Z,10782.8
2019-02-19T17:28:05.434Z,10782.9
2019-02-19T17:38:14.189Z,10782.9
2019-02-19T17:48:03.856Z,10783
2019-02-19T17:58:03.059Z,10783.1
2019-02-19T18:08:02.319Z,10783.2
2019-02-19T18:18:01.475Z,10783.2
2019-02-19T18:28:00.735Z,10783.3
2019-02-19T18:37:59.895Z,10783.3
2019-02-19T18:47:59.111Z,10783.4
2019-02-19T18:57:58.373Z,10783.4
2019-02-19T19:07:57.541Z,10783.5
2019-02-19T19:17:56.787Z,10783.5
2019-02-19T19:27:55.995Z,10783.6
2019-02-19T19:37:55.153Z,10783.7
2019-02-19T19:47:54.360Z,10783.8
2019-02-19T19:57:53.572Z,10783.9
2019-02-19T20:07:52.793Z,10783.9
2019-02-19T20:17:51.991Z,10784
2019-02-19T20:34:00.129Z,10783.7
2019-02-19T20:43:59.396Z,10783.8
2019-02-19T20:53:58.547Z,10783.9
2019-02-19T21:08:54.739Z,10783.7
2019-02-19T21:18:53.900Z,10783.7
2019-02-19T21:28:53.110Z,10783.8
2019-02-19T21:38:52.542Z,10783.9
2019-02-19T21:48:51.531Z,10784
2019-02-19T21:58:50.737Z,10784.1
2019-02-19T22:08:49.996Z,10784.1
2019-02-19T22:18:49.338Z,10784.2
2019-02-19T22:28:48.581Z,10784.2
2019-02-19T22:38:47.866Z,10784.3
2019-02-19T22:48:47.154Z,10784.4
2019-02-19T22:58:46.445Z,10784.5
2019-02-19T23:08:45.650Z,10784.6
2019-02-19T23:18:44.854Z,10784.7
2019-02-19T23:28:44.061Z,10784.8
2019-02-19T23:38:43.268Z,10784.8
2019-02-19T23:48:42.470Z,10784.9
2019-02-19T23:58:41.679Z,10784.9
